This is the latest recevied weather packets stored in our database for station/object AJ7DN. If no packets are shown the sender has not sent any weather packets the latest 10 day(s).
| Time | Temp. | Humidity | Pressure | Rain* | Wind** | Luminosity | Snow |
|---|---|---|---|---|---|---|---|
| 1777231305 | 20° C | 42% | 1014.8 hPa | 0 mm | - | 764 W/m² | - |
| 1777231001 | 19.44° C | 43% | 1014.8 hPa | 0 mm | - | 772 W/m² | - |
| 1777230697 | 18.89° C | 44% | 1014.7 hPa | 0 mm | - | 906 W/m² | - |
| 1777230392 | 18.33° C | 44% | 1014.9 hPa | 0 mm | - | 923 W/m² | - |
| 1777230089 | 18.89° C | 45% | 1014.9 hPa | 0 mm | - | 993 W/m² | - |
| 1777229786 | 18.89° C | 47% | 1015 hPa | 0 mm | - | 1059 W/m² | - |
| 1777229483 | 18.89° C | 44% | 1014.8 hPa | 0 mm | - | 1109 W/m² | - |
| 1777229179 | 18.89° C | 45% | 1014.9 hPa | 0 mm | - | 1141 W/m² | - |
| 1777228877 | 17.78° C | 47% | 1014.8 hPa | 0 mm | - | 1094 W/m² | - |
| 1777228572 | 17.22° C | 50% | 1015 hPa | 0 mm | - | 1037 W/m² | - |
| 1777228269 | 17.78° C | 48% | 1014.9 hPa | 0 mm | - | 1085 W/m² | - |
| 1777227969 | 17.78° C | 49% | 1014.9 hPa | 0 mm | - | 1105 W/m² | - |
| 1777227663 | 16.67° C | 49% | 1014.8 hPa | 0 mm | - | 1046 W/m² | - |
| 1777227360 | 16.67° C | 51% | 1014.8 hPa | 0 mm | - | 851 W/m² | - |
| 1777227057 | 16.67° C | 50% | 1014.8 hPa | 0 mm | - | 826 W/m² | - |
| 1777226757 | 16.67° C | 50% | 1014.9 hPa | 0 mm | - | 795 W/m² | - |
| 1777226452 | 17.22° C | 49% | 1014.8 hPa | 0 mm | - | 768 W/m² | - |
| 1777226148 | 16.11° C | 52% | 1014.8 hPa | 0 mm | - | 728 W/m² | - |
| 1777225844 | 16.67° C | 50% | 1014.9 hPa | 0 mm | - | 734 W/m² | - |
| 1777225540 | 16.67° C | 51% | 1014.7 hPa | 0 mm | - | 742 W/m² | - |
| 1777225238 | 16.11° C | 51% | 1014.6 hPa | 0 mm | - | 726 W/m² | - |
| 1777224934 | 16.11° C | 51% | 1014.9 hPa | 0 mm | - | 704 W/m² | - |
| 1777224632 | 16.11° C | 52% | 1014.8 hPa | 0 mm | - | 690 W/m² | - |
| 1777224331 | 15° C | 55% | 1014.8 hPa | 0 mm | - | 681 W/m² | - |
| 1777224027 | 15° C | 54% | 1014.5 hPa | 0 mm | - | 668 W/m² | - |
* Rain latest hour (hover to see other rain measurements)
** Current wind speed in m/s (hover to see current wind gust speed)